createdAt,value
2022-10-20T00:01:55.223Z,8.23
2022-10-20T00:04:22.025Z,8.43
2022-10-20T00:06:48.907Z,7.97
2022-10-20T00:09:16.160Z,8.32
2022-10-20T00:11:46.075Z,7.47
2022-10-20T00:14:13.253Z,7.85
2022-10-20T00:16:41.075Z,8.43
2022-10-20T00:19:08.065Z,8.15
2022-10-20T00:21:35.535Z,7.70
2022-10-20T00:24:03.788Z,7.53
2022-10-20T00:26:38.221Z,7.40
2022-10-20T00:29:05.169Z,7.55
2022-10-20T00:31:32.583Z,6.28
2022-10-20T00:33:59.542Z,7.50
2022-10-20T00:36:26.352Z,7.07
2022-10-20T00:39:04.612Z,6.38
2022-10-20T00:41:32.486Z,7.65
2022-10-20T00:44:22.022Z,7.03
2022-10-20T00:46:48.911Z,7.40
2022-10-20T00:49:20.942Z,6.78
2022-10-20T00:51:49.221Z,6.78
2022-10-20T00:54:20.861Z,6.78
2022-10-20T00:56:50.039Z,6.65
2022-10-20T00:59:20.244Z,6.88
2022-10-20T01:01:47.136Z,6.95
2022-10-20T01:04:15.182Z,6.20
2022-10-20T01:06:42.011Z,6.40
2022-10-20T01:09:09.147Z,5.82
2022-10-20T01:11:41.737Z,6.18
2022-10-20T01:14:33.376Z,5.68
2022-10-20T01:17:24.381Z,6.15
2022-10-20T01:20:14.627Z,6.45
2022-10-20T01:23:02.716Z,5.68
2022-10-20T01:25:57.304Z,6.13
2022-10-20T01:28:42.010Z,5.70
2022-10-20T01:31:27.099Z,6.80
2022-10-20T01:34:09.932Z,6.88
2022-10-20T01:36:44.516Z,7.25
2022-10-20T01:39:18.226Z,7.97
2022-10-20T01:41:53.332Z,8.73
2022-10-20T01:44:22.806Z,10.05
2022-10-20T01:46:50.181Z,9.18
2022-10-20T01:49:17.182Z,8.32
2022-10-20T01:51:43.986Z,7.95
2022-10-20T01:54:26.793Z,8.82
2022-10-20T01:57:27.594Z,8.50
2022-10-20T01:59:57.390Z,8.15
2022-10-20T02:02:38.942Z,8.40
2022-10-20T02:05:15.453Z,8.30
2022-10-20T02:07:43.236Z,7.70
2022-10-20T02:10:16.771Z,8.52
2022-10-20T02:12:47.542Z,8.40
2022-10-20T02:15:20.538Z,8.63
2022-10-20T02:17:53.320Z,8.80
2022-10-20T02:20:20.364Z,8.73
2022-10-20T02:22:48.716Z,8.20
2022-10-20T02:25:15.664Z,8.45
2022-10-20T02:27:47.143Z,8.65
2022-10-20T02:30:17.475Z,8.63
2022-10-20T02:32:49.752Z,8.20
2022-10-20T02:35:29.823Z,8.18
2022-10-20T02:37:57.553Z,7.68
2022-10-20T02:40:24.823Z,7.47
2022-10-20T02:42:51.685Z,7.32
2022-10-20T02:45:18.911Z,7.95
2022-10-20T02:47:45.807Z,8.35
2022-10-20T02:50:13.122Z,8.25
2022-10-20T02:52:41.364Z,8.10
2022-10-20T02:55:08.765Z,8.07
2022-10-20T02:57:35.881Z,8.95
2022-10-20T03:00:03.734Z,8.13
2022-10-20T03:02:30.704Z,7.80
2022-10-20T03:04:57.507Z,7.93
2022-10-20T03:07:24.364Z,7.07
2022-10-20T03:09:51.211Z,8.07
2022-10-20T03:12:18.062Z,7.72
2022-10-20T03:14:45.621Z,7.72
2022-10-20T03:17:12.396Z,8.02
2022-10-20T03:19:41.043Z,7.80
2022-10-20T03:22:07.908Z,7.38
2022-10-20T03:24:34.702Z,8.18
2022-10-20T03:27:01.643Z,7.05
2022-10-20T03:29:28.511Z,7.97
2022-10-20T03:31:55.373Z,7.05
2022-10-20T03:34:22.270Z,7.47
2022-10-20T03:36:49.083Z,7.28
2022-10-20T03:39:16.116Z,7.95
2022-10-20T03:41:42.895Z,7.53
2022-10-20T03:44:11.265Z,7.43
2022-10-20T03:46:38.083Z,7.60
2022-10-20T03:49:05.193Z,8.50
2022-10-20T03:51:32.046Z,8.07
2022-10-20T03:53:58.989Z,8.32
2022-10-20T03:56:25.818Z,8.68
2022-10-20T03:58:52.748Z,7.97
2022-10-20T04:01:24.683Z,7.93
2022-10-20T04:03:51.503Z,8.82
2022-10-20T04:06:18.411Z,8.75
2022-10-20T04:08:45.369Z,7.90
2022-10-20T04:11:12.523Z,8.77
2022-10-20T04:13:39.608Z,8.32
2022-10-20T04:16:06.928Z,9.18
2022-10-20T04:18:33.824Z,9.05
2022-10-20T04:21:00.781Z,9.10
2022-10-20T04:23:27.650Z,8.95
2022-10-20T04:25:54.456Z,10.27
2022-10-20T04:28:21.539Z,9.98
2022-10-20T04:30:49.223Z,12.25
2022-10-20T04:33:16.405Z,11.48
2022-10-20T04:35:43.284Z,11.73
2022-10-20T04:38:10.198Z,11.93
2022-10-20T04:40:37.091Z,12.15
2022-10-20T04:43:03.954Z,12.02
2022-10-20T04:45:30.773Z,10.95
2022-10-20T04:47:57.591Z,12.23
2022-10-20T04:50:24.471Z,11.52
2022-10-20T04:52:51.531Z,11.40
2022-10-20T04:55:18.676Z,12.60
2022-10-20T04:57:45.535Z,14.85
2022-10-20T05:00:13.010Z,11.48
2022-10-20T05:02:39.779Z,10.70
2022-10-20T05:05:07.003Z,12.00
2022-10-20T05:07:34.069Z,11.43
2022-10-20T05:10:01.208Z,12.57
2022-10-20T05:12:28.612Z,12.27
2022-10-20T05:14:55.471Z,12.50
2022-10-20T05:17:22.399Z,12.20
2022-10-20T05:19:49.274Z,12.38
2022-10-20T05:22:16.100Z,12.75
2022-10-20T05:24:42.995Z,10.50
2022-10-20T05:27:09.801Z,10.70
2022-10-20T05:29:36.584Z,10.68
2022-10-20T05:32:24.735Z,11.73
2022-10-20T05:34:51.518Z,10.25
2022-10-20T05:37:18.417Z,9.02
2022-10-20T05:39:45.344Z,8.77
2022-10-20T05:42:12.276Z,8.45
2022-10-20T05:44:39.083Z,24.60
2022-10-20T05:47:05.889Z,8.85
2022-10-20T05:49:32.682Z,8.10
2022-10-20T05:51:59.583Z,8.38
2022-10-20T05:54:26.467Z,9.35
2022-10-20T05:56:53.245Z,15.48
2022-10-20T05:59:20.038Z,14.40
2022-10-20T06:01:49.691Z,15.13
2022-10-20T06:04:24.753Z,15.57
2022-10-20T06:06:52.873Z,14.65
2022-10-20T06:09:20.677Z,12.25
2022-10-20T06:11:48.031Z,13.93
2022-10-20T06:14:15.108Z,10.48
2022-10-20T06:16:41.953Z,11.43
2022-10-20T06:19:09.144Z,11.00
2022-10-20T06:21:37.816Z,9.73
2022-10-20T06:24:06.222Z,12.27
2022-10-20T06:26:36.797Z,17.70
2022-10-20T06:29:06.122Z,14.10
2022-10-20T06:31:41.748Z,12.23
2022-10-20T06:34:13.422Z,10.33
2022-10-20T06:36:42.215Z,10.18
2022-10-20T06:39:13.084Z,10.02
2022-10-20T06:41:40.237Z,11.50
2022-10-20T06:44:07.625Z,10.98
2022-10-20T06:46:36.795Z,11.10
2022-10-20T06:49:08.278Z,11.80
2022-10-20T06:51:35.928Z,11.27
2022-10-20T06:54:03.364Z,9.43
2022-10-20T06:56:32.203Z,9.65
2022-10-20T06:59:00.760Z,9.95
2022-10-20T07:01:36.268Z,9.60
2022-10-20T07:04:13.800Z,9.50
2022-10-20T07:06:43.157Z,8.43
2022-10-20T07:09:15.084Z,8.68
2022-10-20T07:11:42.443Z,9.35
2022-10-20T07:14:12.667Z,7.50
2022-10-20T07:16:39.622Z,5.88
2022-10-20T07:19:06.452Z,4.80
2022-10-20T07:21:36.495Z,9.35
2022-10-20T07:24:06.385Z,9.13
2022-10-20T07:26:36.253Z,9.90
2022-10-20T07:29:04.143Z,12.18
2022-10-20T07:31:34.867Z,11.68
2022-10-20T07:34:28.245Z,12.02
2022-10-20T07:36:50.184Z,12.93
2022-10-20T07:39:17.187Z,12.13
2022-10-20T07:41:45.777Z,12.07
2022-10-20T07:44:12.805Z,11.35
2022-10-20T07:46:39.826Z,10.75
2022-10-20T07:49:23.968Z,10.60
2022-10-20T07:54:20.247Z,9.95
2022-10-20T07:56:47.259Z,8.70
2022-10-20T07:59:14.543Z,8.52
2022-10-20T08:01:41.999Z,7.85
2022-10-20T08:04:08.926Z,7.25
2022-10-20T08:06:36.182Z,7.60
2022-10-20T08:09:03.461Z,8.05
2022-10-20T08:11:30.471Z,7.70
2022-10-20T08:13:57.278Z,6.35
2022-10-20T08:16:31.040Z,7.43
2022-10-20T08:19:02.691Z,6.00
2022-10-20T08:21:29.526Z,6.65
2022-10-20T08:23:56.387Z,6.35
2022-10-20T08:26:26.024Z,6.55
2022-10-20T08:28:54.659Z,6.55
2022-10-20T08:31:22.093Z,6.90
2022-10-20T08:33:52.659Z,6.60
2022-10-20T08:36:20.235Z,9.13
2022-10-20T08:38:47.087Z,6.55
2022-10-20T08:41:22.148Z,5.95
2022-10-20T08:43:52.438Z,6.80
2022-10-20T08:46:21.033Z,5.80
2022-10-20T08:48:49.112Z,5.80
2022-10-20T08:51:25.311Z,5.80
2022-10-20T08:53:55.958Z,6.05
2022-10-20T08:56:29.411Z,5.72
2022-10-20T08:58:57.004Z,6.47
2022-10-20T09:01:27.551Z,5.63
2022-10-20T09:04:02.934Z,5.05
2022-10-20T09:06:33.687Z,5.50
2022-10-20T09:09:00.817Z,5.35
2022-10-20T09:11:49.293Z,5.07
2022-10-20T09:14:19.327Z,4.82
2022-10-20T09:16:59.763Z,4.90
2022-10-20T09:19:28.714Z,5.40
2022-10-20T09:21:58.454Z,5.28
2022-10-20T09:24:30.275Z,4.78
2022-10-20T09:27:16.148Z,5.40
2022-10-20T09:29:43.020Z,5.95
2022-10-20T09:32:49.361Z,5.03
2022-10-20T09:35:30.148Z,5.43
2022-10-20T09:38:11.771Z,5.65
2022-10-20T09:41:13.731Z,5.18
2022-10-20T09:43:57.149Z,5.47
2022-10-20T09:46:49.585Z,5.53
2022-10-20T09:49:44.817Z,5.00
2022-10-20T09:52:24.820Z,5.25
2022-10-20T09:54:56.545Z,5.72
2022-10-20T09:57:23.614Z,5.25
2022-10-20T09:59:52.957Z,5.10
2022-10-20T10:02:19.837Z,7.28
2022-10-20T10:04:49.137Z,5.22
2022-10-20T10:07:21.962Z,4.90
2022-10-20T10:09:56.519Z,5.90
2022-10-20T10:12:25.252Z,4.85
2022-10-20T10:15:08.351Z,5.88
2022-10-20T10:17:44.700Z,5.15
2022-10-20T10:20:11.461Z,4.55
2022-10-20T10:22:39.872Z,5.13
2022-10-20T10:25:14.826Z,6.00
2022-10-20T10:27:58.428Z,5.30
2022-10-20T10:30:37.619Z,4.72
2022-10-20T10:33:26.066Z,5.38
2022-10-20T10:35:53.237Z,5.70
2022-10-20T10:38:20.581Z,5.78
2022-10-20T10:41:12.343Z,5.30
2022-10-20T10:43:39.103Z,4.95
2022-10-20T10:46:07.310Z,5.80
2022-10-20T10:49:07.860Z,5.05
2022-10-20T10:51:59.415Z,5.40
2022-10-20T10:54:40.356Z,5.30
2022-10-20T10:57:28.755Z,5.60
2022-10-20T10:59:58.932Z,5.70
2022-10-20T11:02:40.929Z,5.85
2022-10-20T11:05:32.292Z,5.88
2022-10-20T11:07:59.027Z,6.35
2022-10-20T11:10:47.684Z,5.63
2022-10-20T11:13:17.448Z,5.63
2022-10-20T11:15:59.410Z,5.57
2022-10-20T11:18:44.788Z,5.18
2022-10-20T11:21:50.249Z,5.70
2022-10-20T11:24:47.508Z,6.70
2022-10-20T11:27:19.373Z,6.30
2022-10-20T11:30:09.769Z,5.78
2022-10-20T11:32:42.547Z,5.03
2022-10-20T11:35:29.472Z,6.22
2022-10-20T11:38:17.292Z,4.95
2022-10-20T11:40:54.880Z,5.32
2022-10-20T11:43:33.450Z,4.20
2022-10-20T11:46:23.735Z,5.20
2022-10-20T11:48:53.419Z,4.03
2022-10-20T11:51:33.579Z,4.85
2022-10-20T11:54:26.590Z,4.35
2022-10-20T11:57:19.588Z,4.82
2022-10-20T12:00:10.611Z,4.32
2022-10-20T12:02:59.233Z,4.80
2022-10-20T12:06:00.125Z,5.03
2022-10-20T12:08:48.720Z,6.68
2022-10-20T12:11:44.547Z,6.90
2022-10-20T12:14:14.416Z,6.43
2022-10-20T12:16:53.692Z,5.20
2022-10-20T12:19:34.974Z,5.40
2022-10-20T12:22:14.992Z,5.60
2022-10-20T12:24:53.785Z,6.05
2022-10-20T12:27:25.650Z,7.22
2022-10-20T12:30:42.484Z,6.57
2022-10-20T12:33:18.437Z,6.40
2022-10-20T12:36:17.144Z,5.85
2022-10-20T12:38:50.985Z,6.53
2022-10-20T12:41:34.063Z,6.25
2022-10-20T12:44:05.081Z,5.97
2022-10-20T12:46:34.182Z,6.15
2022-10-20T12:49:11.121Z,4.97
2022-10-20T12:51:51.100Z,6.20
2022-10-20T12:54:35.030Z,6.30
2022-10-20T12:57:23.629Z,6.13
2022-10-20T12:59:50.504Z,6.28
2022-10-20T13:02:17.624Z,6.15
2022-10-20T13:05:01.997Z,5.45
2022-10-20T13:07:47.109Z,5.68
2022-10-20T13:10:38.974Z,7.57
2022-10-20T13:13:05.723Z,7.38
2022-10-20T13:15:43.734Z,6.70
2022-10-20T13:18:13.524Z,7.85
2022-10-20T13:20:49.422Z,8.10
2022-10-20T13:23:18.939Z,8.32
2022-10-20T13:25:55.378Z,7.60
2022-10-20T13:28:25.228Z,6.82
2022-10-20T13:30:54.769Z,5.60
2022-10-20T13:34:04.059Z,6.28
2022-10-20T13:36:38.168Z,5.50
2022-10-20T13:39:22.278Z,4.72
2022-10-20T13:42:15.517Z,5.28
2022-10-20T13:44:53.621Z,4.85
2022-10-20T13:47:47.874Z,6.32
2022-10-20T13:50:22.851Z,6.15
2022-10-20T13:53:12.761Z,5.60
2022-10-20T13:56:02.198Z,5.10
2022-10-20T13:58:29.150Z,5.78
2022-10-20T14:01:00.959Z,5.60
2022-10-20T14:03:30.058Z,7.20
2022-10-20T14:05:59.118Z,6.53
2022-10-20T14:08:26.663Z,6.63
2022-10-20T14:11:00.318Z,6.20
2022-10-20T14:13:30.952Z,6.00
2022-10-20T14:15:59.943Z,6.20
2022-10-20T14:18:33.004Z,7.95
2022-10-20T14:21:02.780Z,6.72
2022-10-20T14:23:37.461Z,7.30
2022-10-20T14:26:11.150Z,6.88
2022-10-20T14:28:41.233Z,7.82
2022-10-20T14:31:12.123Z,8.02
2022-10-20T14:33:45.189Z,7.53
2022-10-20T14:36:30.873Z,8.88
2022-10-20T14:39:01.553Z,6.63
2022-10-20T14:41:33.016Z,7.85
2022-10-20T14:44:07.866Z,7.30
2022-10-20T14:46:42.195Z,6.35
2022-10-20T14:49:19.241Z,7.47
2022-10-20T14:54:22.044Z,7.65
2022-10-20T14:56:53.446Z,7.40
2022-10-20T14:59:23.883Z,6.72
2022-10-20T15:02:10.714Z,7.78
2022-10-20T15:04:43.272Z,8.00
2022-10-20T15:07:22.311Z,8.20
2022-10-20T15:09:53.580Z,8.40
2022-10-20T15:12:32.204Z,8.93
2022-10-20T15:15:19.936Z,10.00
2022-10-20T15:17:49.969Z,10.23
2022-10-20T15:20:34.439Z,11.27
2022-10-20T15:23:09.720Z,12.18
2022-10-20T15:25:53.522Z,11.77
2022-10-20T15:28:49.875Z,11.18
2022-10-20T15:31:21.358Z,10.10
2022-10-20T15:33:48.770Z,11.60
2022-10-20T15:36:21.746Z,11.75
2022-10-20T15:38:49.846Z,13.80
2022-10-20T15:41:19.419Z,15.15
2022-10-20T15:43:46.257Z,17.55
2022-10-20T15:46:15.709Z,16.40
2022-10-20T15:48:43.511Z,17.80
2022-10-20T15:51:30.461Z,18.70
2022-10-20T15:53:58.331Z,18.45
2022-10-20T15:56:25.710Z,19.23
2022-10-20T15:58:52.816Z,19.20
2022-10-20T16:01:21.453Z,18.85
2022-10-20T16:03:49.173Z,21.08
2022-10-20T16:06:18.168Z,22.95
2022-10-20T16:08:47.711Z,23.05
2022-10-20T16:11:17.370Z,21.67
2022-10-20T16:13:44.256Z,21.48
2022-10-20T16:16:13.778Z,20.98
2022-10-20T16:18:40.748Z,20.15
2022-10-20T16:21:07.726Z,18.02
2022-10-20T16:23:42.315Z,20.83
2022-10-20T16:26:13.227Z,15.15
2022-10-20T16:28:40.257Z,13.57
2022-10-20T16:31:09.659Z,14.05
2022-10-20T16:33:37.193Z,14.18
2022-10-20T16:38:39.177Z,14.45
2022-10-20T16:41:10.203Z,14.50
2022-10-20T16:43:41.998Z,15.40
2022-10-20T16:46:11.234Z,26.05
2022-10-20T16:48:43.851Z,29.58
2022-10-20T16:51:15.600Z,33.22
2022-10-20T16:53:42.728Z,35.45
2022-10-20T16:56:09.762Z,32.78
2022-10-20T16:58:36.639Z,37.10
2022-10-20T17:01:08.701Z,34.03
2022-10-20T17:03:37.820Z,32.35
2022-10-20T17:06:06.983Z,34.33
2022-10-20T17:08:36.181Z,33.78
2022-10-20T17:11:06.049Z,32.10
2022-10-20T17:13:33.898Z,30.42
2022-10-20T17:16:10.271Z,31.70
2022-10-20T17:18:37.571Z,30.90
2022-10-20T17:21:04.796Z,31.67
2022-10-20T17:23:36.264Z,32.38
2022-10-20T17:26:07.331Z,32.97
2022-10-20T17:28:36.485Z,31.52
2022-10-20T17:31:06.557Z,34.42
2022-10-20T17:33:33.600Z,33.25
2022-10-20T17:36:01.619Z,35.13
2022-10-20T17:38:29.541Z,31.40
2022-10-20T17:40:56.611Z,31.55
2022-10-20T17:43:24.101Z,32.15
2022-10-20T17:46:01.571Z,33.63
2022-10-20T17:48:28.632Z,33.42
2022-10-20T17:51:04.580Z,37.88
2022-10-20T17:53:51.756Z,39.10
2022-10-20T17:56:24.141Z,37.78
2022-10-20T17:58:52.059Z,38.30
2022-10-20T18:01:22.029Z,42.53
2022-10-20T18:09:19.732Z,45.22
2022-10-20T18:11:49.184Z,46.70
2022-10-20T18:14:17.256Z,43.80
2022-10-20T18:16:44.423Z,44.33
2022-10-20T18:19:16.724Z,40.47
2022-10-20T18:21:43.804Z,41.67
2022-10-20T18:24:13.726Z,42.22
2022-10-20T18:26:40.661Z,41.60
2022-10-20T18:29:08.913Z,42.58
2022-10-20T18:31:37.511Z,41.40
2022-10-20T18:34:08.402Z,41.92
2022-10-20T18:36:40.396Z,42.33
2022-10-20T18:39:10.895Z,46.85
2022-10-20T18:41:40.074Z,48.58
2022-10-20T18:44:11.034Z,48.03
2022-10-20T18:46:39.431Z,49.63
2022-10-20T18:49:07.431Z,51.47
2022-10-20T18:51:36.080Z,45.35
2022-10-20T18:54:04.475Z,45.55
2022-10-20T18:56:31.475Z,44.55
2022-10-20T18:59:00.761Z,39.65
2022-10-20T19:01:30.152Z,34.47
2022-10-20T19:03:58.350Z,37.80
2022-10-20T19:06:31.014Z,39.05
2022-10-20T19:09:00.564Z,37.38
2022-10-20T19:11:33.215Z,37.97
2022-10-20T19:14:00.832Z,37.25
2022-10-20T19:16:30.782Z,34.15
2022-10-20T19:19:00.003Z,31.88
2022-10-20T19:21:28.592Z,30.50
2022-10-20T19:24:00.032Z,34.45
2022-10-20T19:26:29.934Z,33.10
2022-10-20T19:29:02.305Z,32.08
2022-10-20T19:31:33.955Z,34.78
2022-10-20T19:34:04.126Z,33.85
2022-10-20T19:36:30.900Z,33.05
2022-10-20T19:38:57.898Z,40.38
2022-10-20T19:41:24.858Z,35.95
2022-10-20T19:43:52.219Z,38.35
2022-10-20T19:46:20.667Z,40.90
2022-10-20T19:48:48.051Z,42.40
2022-10-20T19:51:16.260Z,40.97
2022-10-20T19:53:43.146Z,42.92
2022-10-20T19:56:10.556Z,42.97
2022-10-20T19:58:41.433Z,44.80
2022-10-20T20:01:11.841Z,46.08
2022-10-20T20:03:38.810Z,48.60
2022-10-20T20:06:17.102Z,47.65
2022-10-20T20:08:50.614Z,50.78
2022-10-20T20:11:27.075Z,51.28
2022-10-20T20:14:00.395Z,55.15
2022-10-20T20:16:28.015Z,55.33
2022-10-20T20:18:55.445Z,58.03
2022-10-20T20:21:23.187Z,55.13
2022-10-20T20:24:00.169Z,55.75
2022-10-20T20:26:32.956Z,54.35
2022-10-20T20:28:59.947Z,52.88
2022-10-20T20:31:27.428Z,49.33
2022-10-20T20:33:55.109Z,50.65
2022-10-20T20:36:22.015Z,51.22
2022-10-20T20:38:49.853Z,50.70
2022-10-20T20:41:18.713Z,51.72
2022-10-20T20:43:45.635Z,50.60
2022-10-20T20:46:18.358Z,48.85
2022-10-20T20:48:45.650Z,47.97
2022-10-20T20:51:13.617Z,49.60
2022-10-20T20:53:41.183Z,48.10
2022-10-20T20:56:13.883Z,47.50
2022-10-20T20:58:42.091Z,47.45
2022-10-20T21:01:13.241Z,45.90
2022-10-20T21:03:41.191Z,46.35
2022-10-20T21:06:10.473Z,45.13
2022-10-20T21:08:41.085Z,37.30
2022-10-20T21:11:10.365Z,40.05
2022-10-20T21:13:38.465Z,38.90
2022-10-20T21:16:24.036Z,37.95
2022-10-20T21:18:52.834Z,38.65
2022-10-20T21:21:22.646Z,36.05
2022-10-20T21:23:49.639Z,35.15
2022-10-20T21:26:18.673Z,32.58
2022-10-20T21:28:46.500Z,32.35
2022-10-20T21:31:17.231Z,32.58
2022-10-20T21:33:44.323Z,35.22
2022-10-20T21:36:16.633Z,37.60
2022-10-20T21:38:43.915Z,37.13
2022-10-20T21:41:26.114Z,37.53
2022-10-20T21:43:55.769Z,37.55
2022-10-20T21:46:29.934Z,37.38
2022-10-20T21:49:02.493Z,39.47
2022-10-20T21:51:36.215Z,38.58
2022-10-20T21:54:06.064Z,39.53
2022-10-20T21:56:37.496Z,39.15
2022-10-20T21:59:06.095Z,39.50
2022-10-20T22:01:33.606Z,34.55
2022-10-20T22:04:00.844Z,23.13
2022-10-20T22:06:28.435Z,24.63
2022-10-20T22:08:57.895Z,30.23
2022-10-20T22:11:30.632Z,30.27
2022-10-20T22:13:57.806Z,29.08
2022-10-20T22:16:30.604Z,28.85
2022-10-20T22:19:00.391Z,31.00
2022-10-20T22:21:28.555Z,31.95
2022-10-20T22:23:57.382Z,33.30
2022-10-20T22:26:27.591Z,33.70
2022-10-20T22:28:55.358Z,35.35
2022-10-20T22:33:33.998Z,34.50
2022-10-20T22:36:00.802Z,33.13
2022-10-20T22:38:27.808Z,33.08
2022-10-20T22:41:04.510Z,33.35
2022-10-20T22:45:59.199Z,33.75
2022-10-20T22:48:26.609Z,32.42
2022-10-20T22:51:01.193Z,31.52
2022-10-20T22:53:28.081Z,29.20
2022-10-20T22:55:54.976Z,26.58
2022-10-20T22:58:23.050Z,30.25
2022-10-20T23:00:50.352Z,27.80
2022-10-20T23:03:17.276Z,32.60
2022-10-20T23:05:44.084Z,23.65
2022-10-20T23:08:11.163Z,23.75
2022-10-20T23:10:38.078Z,25.38
2022-10-20T23:13:05.608Z,25.58
2022-10-20T23:15:32.689Z,28.40
2022-10-20T23:17:59.467Z,26.95
2022-10-20T23:20:26.301Z,26.77
2022-10-20T23:22:53.203Z,26.55
2022-10-20T23:25:20.104Z,28.00
2022-10-20T23:27:47.001Z,29.42
2022-10-20T23:30:17.943Z,29.38
2022-10-20T23:32:44.756Z,29.20
2022-10-20T23:35:11.886Z,31.30
2022-10-20T23:37:40.190Z,30.30
2022-10-20T23:40:07.828Z,30.75
2022-10-20T23:42:35.466Z,30.10
2022-10-20T23:45:05.186Z,28.25
2022-10-20T23:47:32.186Z,28.60
2022-10-20T23:50:00.667Z,30.25
2022-10-20T23:52:27.702Z,29.77
2022-10-20T23:54:54.528Z,29.20
2022-10-20T23:57:21.352Z,31.15
2022-10-20T23:59:48.171Z,27.25
